Time;durP1;ratioP1;P1;durP2;ratioP2;P2;SDS_P1;SDS_P2;PMS_P1;PMS_P2;Temp;Humidity;BMP_temperature;BMP_pressure;BME280_temperature;BME280_humidity;BME280_pressure;Samples;Min_cycle;Max_cycle;Signal;HPM_P1;HPM_P2
2023/06/27 00:02:03;;;;;;;5.13;2.43;;;17.70;16.00;;;;;;5001755;28;46348;-78
2023/06/27 00:04:29;;;;;;;6.27;2.20;;;17.60;16.30;;;;;;4981842;28;48914;-78
2023/06/27 00:06:55;;;;;;;11.27;2.50;;;17.50;16.30;;;;;;5001889;28;46759;-80
2023/06/27 00:09:20;;;;;;;5.90;1.90;;;17.50;16.50;;;;;;5001602;28;46427;-79
2023/06/27 00:11:46;;;;;;;13.43;2.50;;;17.40;16.40;;;;;;4981519;28;46343;-79
2023/06/27 00:14:13;;;;;;;8.40;2.80;;;17.50;16.30;;;;;;5003760;28;46445;-79
2023/06/27 00:16:39;;;;;;;5.07;1.93;;;17.40;16.40;;;;;;5001103;28;45879;-79
2023/06/27 00:19:05;;;;;;;5.67;1.93;;;17.30;16.60;;;;;;5003988;28;46519;-80
2023/06/27 00:21:35;;;;;;;10.87;2.60;;;17.20;16.80;;;;;;4998491;28;46304;-78
2023/06/27 00:24:01;;;;;;;9.50;2.37;;;17.10;17.00;;;;;;4998243;28;46468;-78
2023/06/27 00:26:27;;;;;;;7.90;2.87;;;17.10;17.00;;;;;;4997024;28;46397;-78
2023/06/27 00:28:54;;;;;;;11.47;2.20;;;17.00;17.10;;;;;;5000758;28;47169;-79
2023/06/27 00:31:20;;;;;;;5.30;2.17;;;17.00;17.30;;;;;;5000662;28;46565;-77
2023/06/27 00:33:46;;;;;;;10.13;2.53;;;17.00;17.40;;;;;;4996598;28;46474;-78
2023/06/27 00:36:12;;;;;;;7.93;2.43;;;17.00;17.50;;;;;;4999679;28;46388;-79
2023/06/27 00:38:37;;;;;;;6.23;2.20;;;17.10;17.40;;;;;;4999465;28;45831;-78
2023/06/27 00:41:03;;;;;;;8.37;2.57;;;17.00;17.40;;;;;;4998439;28;46408;-79
2023/06/27 00:43:29;;;;;;;7.60;2.20;;;17.00;17.60;;;;;;4979843;28;48017;-79
2023/06/27 00:45:54;;;;;;;6.63;2.20;;;17.00;17.70;;;;;;4999663;28;47200;-79
2023/06/27 00:48:21;;;;;;;16.13;2.87;;;16.90;17.90;;;;;;4999322;28;46281;-78
2023/06/27 00:50:48;;;;;;;10.50;2.80;;;16.90;18.10;;;;;;4997659;28;46357;-79
2023/06/27 00:53:14;;;;;;;13.90;2.40;;;16.90;18.10;;;;;;4998471;28;47626;-79
2023/06/27 00:55:41;;;;;;;6.43;2.77;;;16.90;18.20;;;;;;4998709;28;46601;-78
2023/06/27 00:58:08;;;;;;;8.90;2.50;;;16.80;18.30;;;;;;4997517;28;46462;-78
2023/06/27 01:00:34;;;;;;;15.33;3.00;;;16.80;18.50;;;;;;4977563;28;46189;-76
2023/06/27 01:02:59;;;;;;;6.60;2.20;;;16.80;18.80;;;;;;4991192;28;46447;-78
2023/06/27 01:05:25;;;;;;;6.27;2.53;;;16.80;18.90;;;;;;4998869;28;46285;-77
2023/06/27 01:08:05;;;;;;;6.17;2.13;;;16.80;19.10;;;;;;4999665;28;45951;-80
2023/06/27 01:10:37;;;;;;;5.87;2.43;;;16.80;19.60;;;;;;4996418;28;45895;-79
2023/06/27 01:13:18;;;;;;;8.60;2.40;;;16.80;19.60;;;;;;4998300;28;47909;-79
2023/06/27 01:15:44;;;;;;;8.97;2.83;;;16.80;20.10;;;;;;4980830;28;46465;-77
2023/06/27 01:18:12;;;;;;;9.40;2.90;;;16.80;21.10;;;;;;4994701;28;46515;-78
2023/06/27 01:20:38;;;;;;;7.20;2.70;;;16.80;20.10;;;;;;4993279;28;46917;-77
2023/06/27 01:23:25;;;;;;;12.17;2.63;;;16.80;20.10;;;;;;4997776;28;46746;-79
2023/06/27 01:26:07;;;;;;;9.50;2.80;;;16.80;20.10;;;;;;4997381;28;46595;-79
2023/06/27 01:28:38;;;;;;;8.10;2.37;;;16.80;20.10;;;;;;4975087;28;46381;-79
2023/06/27 01:31:04;;;;;;;12.23;2.70;;;16.90;20.20;;;;;;4974184;28;46688;-80
2023/06/27 01:33:39;;;;;;;4.70;2.50;;;16.90;20.50;;;;;;4996996;28;46400;-81
2023/06/27 01:36:10;;;;;;;13.43;2.70;;;16.90;21.10;;;;;;4999309;28;46443;-79
2023/06/27 01:38:48;;;;;;;5.37;2.20;;;16.90;21.10;;;;;;4996056;28;47003;-80
2023/06/27 01:41:18;;;;;;;8.67;2.50;;;17.00;21.40;;;;;;4998764;28;46469;-78
2023/06/27 01:43:44;;;;;;;8.37;2.87;;;17.00;21.20;;;;;;4996324;28;46478;-79
2023/06/27 01:46:11;;;;;;;5.53;1.97;;;17.00;21.20;;;;;;4998602;28;46475;-79
2023/06/27 01:48:38;;;;;;;10.33;2.87;;;17.00;21.30;;;;;;4998692;28;46623;-80
2023/06/27 01:51:08;;;;;;;7.50;2.83;;;17.10;21.60;;;;;;4996046;28;46826;-79
2023/06/27 01:53:35;;;;;;;5.73;2.40;;;17.00;21.70;;;;;;5000595;28;46713;-81
2023/06/27 01:56:01;;;;;;;8.07;2.40;;;17.00;21.90;;;;;;4985908;28;46518;-80
2023/06/27 01:58:27;;;;;;;8.00;2.30;;;17.10;22.00;;;;;;4986023;28;46685;-77
2023/06/27 02:00:52;;;;;;;10.60;2.73;;;17.00;22.10;;;;;;5000013;28;46929;-78
2023/06/27 02:03:18;;;;;;;10.20;2.97;;;17.10;22.20;;;;;;5002122;28;46364;-82
2023/06/27 02:05:44;;;;;;;9.33;2.60;;;17.00;22.30;;;;;;5002957;28;46458;-83
2023/06/27 02:08:09;;;;;;;11.73;2.47;;;17.00;22.50;;;;;;4986024;28;46427;-87
2023/06/27 02:10:35;;;;;;;5.70;2.80;;;17.00;22.60;;;;;;5000223;28;46578;-78
2023/06/27 02:13:03;;;;;;;8.53;2.93;;;17.00;22.70;;;;;;5002166;28;46091;-78
2023/06/27 02:15:29;;;;;;;7.60;2.50;;;17.10;22.90;;;;;;4981663;28;46725;-78
2023/06/27 02:17:54;;;;;;;4.40;2.00;;;17.00;23.00;;;;;;4998719;28;46439;-79
2023/06/27 02:20:20;;;;;;;6.03;2.60;;;17.00;23.10;;;;;;5001656;28;46678;-78
2023/06/27 02:22:45;;;;;;;10.00;3.10;;;17.10;23.10;;;;;;4976224;28;48039;-79
2023/06/27 02:25:11;;;;;;;6.60;2.33;;;17.10;23.00;;;;;;4999825;28;46399;-78
2023/06/27 02:27:37;;;;;;;11.20;2.80;;;17.20;22.90;;;;;;4998898;28;46667;-78
2023/06/27 02:30:02;;;;;;;8.10;2.90;;;17.30;22.90;;;;;;4997686;28;46522;-78
2023/06/27 02:32:28;;;;;;;11.93;2.60;;;17.30;22.90;;;;;;4999977;28;46503;-79
2023/06/27 02:34:53;;;;;;;6.97;2.30;;;17.20;22.70;;;;;;5000572;28;46403;-78
2023/06/27 02:37:19;;;;;;;7.47;2.50;;;17.30;23.80;;;;;;5000714;28;46484;-79
2023/06/27 02:39:44;;;;;;;9.77;2.60;;;17.30;22.90;;;;;;4996343;28;46777;-79
2023/06/27 02:42:10;;;;;;;9.57;2.97;;;17.30;23.00;;;;;;4997870;28;46859;-78
2023/06/27 02:44:36;;;;;;;11.90;2.70;;;17.30;23.20;;;;;;5001831;28;46425;-78
2023/06/27 02:47:01;;;;;;;11.23;2.53;;;17.20;24.40;;;;;;5003893;28;46382;-85
2023/06/27 02:49:27;;;;;;;11.57;2.80;;;17.20;23.80;;;;;;5001680;28;46619;-81
2023/06/27 02:51:52;;;;;;;9.93;2.90;;;17.10;24.10;;;;;;4998667;28;46501;-78
2023/06/27 02:54:18;;;;;;;11.60;2.67;;;17.00;24.50;;;;;;5001886;28;47517;-80
2023/06/27 02:56:43;;;;;;;14.73;2.87;;;17.00;24.80;;;;;;5001774;28;46473;-80
2023/06/27 02:59:09;;;;;;;12.60;2.97;;;17.00;24.90;;;;;;4984244;28;46396;-80
2023/06/27 03:01:34;;;;;;;17.47;3.40;;;17.00;25.10;;;;;;5000474;28;46475;-80
2023/06/27 03:04:00;;;;;;;8.80;3.43;;;16.90;25.30;;;;;;4986176;28;46493;-81
2023/06/27 03:06:25;;;;;;;9.70;3.03;;;16.90;25.70;;;;;;4984705;28;46406;-80
2023/06/27 03:08:51;;;;;;;21.53;3.10;;;16.80;25.90;;;;;;4984177;28;47178;-80
2023/06/27 03:11:17;;;;;;;11.70;3.00;;;16.70;26.00;;;;;;4998184;28;46491;-80
2023/06/27 03:13:42;;;;;;;6.60;2.63;;;16.70;26.20;;;;;;5002556;28;46915;-80
2023/06/27 03:16:08;;;;;;;8.87;3.00;;;16.80;26.30;;;;;;5003215;28;46482;-79
2023/06/27 03:18:33;;;;;;;6.60;2.93;;;16.70;26.10;;;;;;4981530;28;46778;-79
2023/06/27 03:20:59;;;;;;;11.03;3.00;;;16.80;26.10;;;;;;5003564;28;46446;-83
2023/06/27 03:23:24;;;;;;;12.63;3.03;;;16.80;26.20;;;;;;5003232;28;46344;-82
2023/06/27 03:25:50;;;;;;;8.23;2.80;;;16.90;26.10;;;;;;4990646;28;47083;-82
2023/06/27 03:28:16;;;;;;;3.73;2.23;;;16.90;26.00;;;;;;5002078;28;46532;-81
2023/06/27 03:30:43;;;;;;;20.13;2.93;;;16.90;25.90;;;;;;5002145;28;46344;-82
2023/06/27 03:33:12;;;;;;;13.83;3.60;;;17.00;25.90;;;;;;4985950;28;46385;-82
2023/06/27 03:35:38;;;;;;;9.80;2.90;;;17.00;26.00;;;;;;5001166;28;46496;-81
2023/06/27 03:38:04;;;;;;;10.70;2.70;;;17.00;26.00;;;;;;4999148;28;47367;-82
2023/06/27 03:40:29;;;;;;;8.10;2.80;;;17.00;26.00;;;;;;5002166;28;47424;-81
2023/06/27 03:42:56;;;;;;;9.70;3.10;;;17.10;26.00;;;;;;5001491;28;46475;-82
2023/06/27 03:45:22;;;;;;;10.57;2.63;;;17.10;26.00;;;;;;4985124;28;46440;-82
2023/06/27 03:47:48;;;;;;;9.60;2.93;;;17.20;26.00;;;;;;4999407;28;46525;-82
2023/06/27 03:50:13;;;;;;;8.23;2.87;;;17.20;26.00;;;;;;5002890;28;46664;-84
2023/06/27 03:52:39;;;;;;;12.00;2.53;;;17.20;26.20;;;;;;4998898;28;46885;-84
2023/06/27 03:55:07;;;;;;;11.43;2.63;;;17.20;26.40;;;;;;4984417;28;46714;-80
2023/06/27 03:57:33;;;;;;;11.03;2.87;;;17.20;26.20;;;;;;5000232;28;46646;-83
2023/06/27 03:59:59;;;;;;;11.77;2.57;;;17.20;26.20;;;;;;4984206;28;48171;-81
2023/06/27 04:02:24;;;;;;;13.53;3.23;;;17.20;26.30;;;;;;4998729;28;46393;-81
2023/06/27 04:04:50;;;;;;;8.70;2.40;;;17.30;26.20;;;;;;5001872;28;46430;-82
2023/06/27 04:07:15;;;;;;;8.10;2.90;;;17.20;26.20;;;;;;4984001;28;46645;-79
2023/06/27 04:09:41;;;;;;;12.63;3.23;;;17.20;27.40;;;;;;4981893;28;48252;-81
2023/06/27 04:12:08;;;;;;;12.83;2.70;;;17.20;26.40;;;;;;4998664;28;46416;-81
2023/06/27 04:14:34;;;;;;;6.30;2.73;;;17.30;26.30;;;;;;5000308;28;46806;-81
2023/06/27 04:17:00;;;;;;;11.13;3.00;;;17.30;26.40;;;;;;4999239;28;46427;-81
2023/06/27 04:19:25;;;;;;;9.30;3.03;;;17.30;26.50;;;;;;4997655;28;46543;-81
2023/06/27 04:21:51;;;;;;;9.70;3.13;;;17.30;26.50;;;;;;5001988;28;46329;-81
2023/06/27 04:24:16;;;;;;;8.50;2.80;;;17.30;26.40;;;;;;5003279;28;46653;-80
2023/06/27 04:26:42;;;;;;;6.50;2.83;;;17.30;26.50;;;;;;4977841;28;46712;-82
2023/06/27 04:29:08;;;;;;;6.40;2.63;;;17.40;26.50;;;;;;5000722;28;48643;-81
2023/06/27 04:31:33;;;;;;;9.70;2.90;;;17.40;26.20;;;;;;5014412;28;46354;-82
2023/06/27 04:33:59;;;;;;;10.30;2.40;;;17.50;26.00;;;;;;5008727;28;46306;-81
2023/06/27 04:36:26;;;;;;;12.00;3.10;;;17.60;25.90;;;;;;4999636;28;46473;-82
2023/06/27 04:38:52;;;;;;;8.60;2.60;;;17.60;25.70;;;;;;5000395;28;46328;-82
2023/06/27 04:41:17;;;;;;;11.77;3.40;;;17.70;25.40;;;;;;5000598;28;46584;-81
2023/06/27 04:43:43;;;;;;;6.80;2.50;;;17.70;25.30;;;;;;4997677;28;47451;-80
2023/06/27 04:46:09;;;;;;;6.03;2.47;;;17.80;25.10;;;;;;4981594;28;46715;-81
2023/06/27 04:48:35;;;;;;;8.90;3.13;;;17.90;25.00;;;;;;4999611;28;47269;-80
2023/06/27 04:51:00;;;;;;;9.00;2.20;;;18.00;25.00;;;;;;4999531;28;46408;-81
2023/06/27 04:53:26;;;;;;;11.60;2.90;;;18.10;24.60;;;;;;4996667;28;46431;-81
2023/06/27 04:55:53;;;;;;;7.20;2.70;;;18.20;24.40;;;;;;4997481;28;46511;-81
2023/06/27 04:58:19;;;;;;;7.70;2.80;;;18.30;24.40;;;;;;4999552;28;46680;-81
2023/06/27 05:00:51;;;;;;;12.20;2.87;;;18.20;24.20;;;;;;4981296;28;46004;-81
2023/06/27 05:03:17;;;;;;;9.47;2.83;;;18.30;24.30;;;;;;4999606;28;46407;-81
2023/06/27 05:05:44;;;;;;;8.00;2.70;;;18.30;24.10;;;;;;4997997;28;46039;-80
2023/06/27 05:08:10;;;;;;;6.97;2.70;;;18.20;24.10;;;;;;5000011;28;46690;-81
2023/06/27 05:10:36;;;;;;;8.80;3.00;;;18.20;24.10;;;;;;4982037;28;46392;-82
2023/06/27 05:13:01;;;;;;;8.00;2.47;;;18.30;24.00;;;;;;4996455;28;46465;-76
2023/06/27 05:15:27;;;;;;;7.13;2.57;;;18.30;23.90;;;;;;4999345;28;46471;-82
2023/06/27 05:17:54;;;;;;;4.83;2.50;;;18.40;23.70;;;;;;4998755;28;46464;-81
2023/06/27 05:20:22;;;;;;;8.83;2.67;;;18.50;23.40;;;;;;4997336;28;46455;-80
2023/06/27 05:22:47;;;;;;;11.23;2.77;;;18.60;23.30;;;;;;4995621;28;46454;-82
2023/06/27 05:25:13;;;;;;;7.63;2.50;;;18.60;23.20;;;;;;5000034;28;46415;-81
2023/06/27 05:27:39;;;;;;;11.80;2.60;;;18.60;23.10;;;;;;4981120;28;48644;-80
2023/06/27 05:30:05;;;;;;;8.93;3.00;;;18.70;23.20;;;;;;4996858;28;46463;-80
2023/06/27 05:32:30;;;;;;;5.93;2.10;;;18.70;22.80;;;;;;4997911;28;46766;-81
2023/06/27 05:34:56;;;;;;;15.77;2.80;;;18.80;22.60;;;;;;4983783;28;46425;-83
2023/06/27 05:37:21;;;;;;;10.40;2.63;;;18.80;22.40;;;;;;5001904;28;46540;-82
2023/06/27 05:39:47;;;;;;;7.27;3.17;;;18.80;22.10;;;;;;5003210;28;46367;-84
2023/06/27 05:42:13;;;;;;;7.53;2.60;;;18.80;21.90;;;;;;5003959;28;46456;-84
2023/06/27 05:44:38;;;;;;;12.00;3.13;;;18.90;21.70;;;;;;5004473;28;46417;-81
2023/06/27 05:47:05;;;;;;;18.00;5.43;;;19.00;21.70;;;;;;5000698;28;46603;-80
2023/06/27 05:49:30;;;;;;;27.67;9.00;;;19.00;21.70;;;;;;5001306;28;46498;-80
2023/06/27 05:51:56;;;;;;;13.17;4.90;;;19.10;21.80;;;;;;4984299;28;46867;-80
2023/06/27 05:54:22;;;;;;;57.00;11.20;;;19.10;21.80;;;;;;5005494;28;46983;-82
2023/06/27 05:56:47;;;;;;;34.47;6.43;;;19.00;21.70;;;;;;5001910;28;46510;-80
2023/06/27 05:59:13;;;;;;;25.90;10.83;;;19.00;21.70;;;;;;5000831;28;46289;-82
2023/06/27 06:01:38;;;;;;;15.83;5.00;;;19.00;21.70;;;;;;4985238;28;46471;-81
2023/06/27 06:04:07;;;;;;;13.43;3.90;;;19.00;21.70;;;;;;4998617;28;46667;-82
2023/06/27 06:06:35;;;;;;;8.07;2.93;;;19.00;21.70;;;;;;4999894;28;47251;-81
2023/06/27 06:09:01;;;;;;;7.73;3.23;;;19.00;21.70;;;;;;5002824;28;46304;-83
2023/06/27 06:11:27;;;;;;;12.80;3.17;;;19.10;21.80;;;;;;5003987;28;45930;-80
2023/06/27 06:13:52;;;;;;;9.50;3.13;;;19.10;21.70;;;;;;5001756;28;46659;-80
2023/06/27 06:16:18;;;;;;;9.43;2.90;;;19.20;21.30;;;;;;5000443;28;47827;-81
2023/06/27 06:18:43;;;;;;;8.67;2.93;;;19.40;20.80;;;;;;5001720;28;46406;-80
2023/06/27 06:21:09;;;;;;;4.37;2.30;;;19.50;20.60;;;;;;4982732;28;46448;-81
2023/06/27 06:23:34;;;;;;;9.03;2.43;;;19.50;20.30;;;;;;4984473;28;46401;-81
2023/06/27 06:26:00;;;;;;;7.70;2.50;;;19.60;20.40;;;;;;4999068;28;46788;-81
2023/06/27 06:28:25;;;;;;;9.33;2.50;;;19.70;20.50;;;;;;4985923;28;46560;-83
2023/06/27 06:30:51;;;;;;;17.63;3.17;;;19.60;20.50;;;;;;4999732;28;46671;-81
2023/06/27 06:33:16;;;;;;;12.90;2.83;;;19.50;20.20;;;;;;5002040;28;46301;-80
2023/06/27 06:35:42;;;;;;;6.30;2.73;;;19.40;20.10;;;;;;5003934;28;46463;-80
2023/06/27 06:38:07;;;;;;;5.73;2.77;;;19.40;19.90;;;;;;5002512;28;49478;-80
2023/06/27 06:40:33;;;;;;;13.53;2.80;;;19.40;19.50;;;;;;4998703;28;46476;-81
2023/06/27 06:42:58;;;;;;;7.07;2.60;;;19.50;19.40;;;;;;5002907;28;46525;-81
2023/06/27 06:45:24;;;;;;;8.50;2.23;;;19.60;19.10;;;;;;5003561;28;46412;-83
2023/06/27 06:47:49;;;;;;;7.97;2.67;;;19.70;19.00;;;;;;5001554;28;46471;-81
2023/06/27 06:50:15;;;;;;;8.60;2.60;;;19.80;18.40;;;;;;5000314;28;46446;-82
2023/06/27 06:52:40;;;;;;;6.10;2.50;;;20.10;17.90;;;;;;5001700;28;46810;-81
2023/06/27 06:55:07;;;;;;;7.87;2.33;;;20.30;17.30;;;;;;4998044;28;46510;-79
2023/06/27 06:57:32;;;;;;;11.70;2.40;;;20.50;16.70;;;;;;5003234;28;46373;-81
2023/06/27 06:59:58;;;;;;;4.73;2.37;;;20.60;16.30;;;;;;5005772;28;46439;-82
2023/06/27 07:02:23;;;;;;;5.63;2.23;;;20.70;16.10;;;;;;5003250;28;46136;-82
2023/06/27 07:04:49;;;;;;;7.37;2.30;;;20.70;15.50;;;;;;5003151;28;47017;-81
2023/06/27 07:07:14;;;;;;;21.27;2.67;;;20.60;15.30;;;;;;4985365;28;47020;-82
2023/06/27 07:09:40;;;;;;;10.27;2.80;;;20.80;14.70;;;;;;5003415;28;46451;-81
2023/06/27 07:12:05;;;;;;;9.80;2.10;;;21.10;13.90;;;;;;5002421;28;46372;-82
2023/06/27 07:14:31;;;;;;;5.13;2.13;;;21.50;13.30;;;;;;4999544;28;46517;-82
2023/06/27 07:16:56;;;;;;;7.37;2.77;;;21.80;12.60;;;;;;5003121;28;46455;-81
2023/06/27 07:19:22;;;;;;;8.50;2.80;;;22.10;12.40;;;;;;5004878;28;46432;-84
2023/06/27 07:21:47;;;;;;;5.90;2.57;;;22.40;11.90;;;;;;5003337;28;46678;-83
2023/06/27 07:24:13;;;;;;;6.53;2.43;;;22.40;11.00;;;;;;5002955;28;47131;-82
2023/06/27 07:26:39;;;;;;;12.50;1.93;;;22.50;11.10;;;;;;5004861;28;45812;-82
2023/06/27 07:29:04;;;;;;;6.90;2.00;;;22.80;10.60;;;;;;5005291;28;46360;-82
2023/06/27 07:31:30;;;;;;;4.57;1.93;;;22.60;10.20;;;;;;5001116;28;46421;-80
2023/06/27 07:33:55;;;;;;;6.17;2.23;;;22.70;9.20;;;;;;4983599;28;48078;-81
2023/06/27 07:36:21;;;;;;;9.87;2.10;;;22.80;8.90;;;;;;5000875;28;46655;-82
2023/06/27 07:38:46;;;;;;;8.33;2.43;;;22.60;8.80;;;;;;5001627;28;46458;-79
2023/06/27 07:41:12;;;;;;;7.83;2.70;;;22.50;8.60;;;;;;4976209;28;46464;-81
2023/06/27 07:43:38;;;;;;;6.10;2.03;;;22.50;8.60;;;;;;5003829;28;46514;-82
2023/06/27 07:46:03;;;;;;;11.40;2.50;;;22.50;8.00;;;;;;5002058;28;46448;-82
2023/06/27 07:48:29;;;;;;;6.77;2.57;;;22.20;7.90;;;;;;5000317;28;46551;-82
2023/06/27 07:50:55;;;;;;;13.40;2.70;;;22.30;8.00;;;;;;5000305;28;45951;-82
2023/06/27 07:53:21;;;;;;;18.73;2.47;;;22.50;7.90;;;;;;5001533;28;46495;-81
2023/06/27 07:55:46;;;;;;;9.10;2.53;;;22.40;6.80;;;;;;5001021;28;46442;-80
2023/06/27 07:58:12;;;;;;;4.20;1.93;;;22.20;7.00;;;;;;4997285;28;48221;-80
2023/06/27 08:00:38;;;;;;;6.53;2.30;;;22.30;7.00;;;;;;5001956;28;46352;-80
2023/06/27 08:03:04;;;;;;;10.83;2.57;;;22.60;6.50;;;;;;4999054;28;46196;-82
2023/06/27 08:05:34;;;;;;;11.00;2.60;;;22.90;5.80;;;;;;4981261;28;46413;-81
2023/06/27 08:08:00;;;;;;;10.00;2.63;;;22.90;5.20;;;;;;4998005;28;46364;-81
2023/06/27 08:10:27;;;;;;;5.77;2.30;;;22.90;4.80;;;;;;5000728;28;46400;-82
2023/06/27 08:12:53;;;;;;;8.87;2.67;;;23.10;4.50;;;;;;5001653;28;46440;-81
2023/06/27 08:15:19;;;;;;;8.10;2.10;;;23.00;4.60;;;;;;4998615;28;46480;-80
2023/06/27 08:17:45;;;;;;;6.50;2.27;;;22.60;4.90;;;;;;4983032;28;46649;-81
2023/06/27 08:20:11;;;;;;;9.50;2.57;;;22.70;4.80;;;;;;4996092;28;46386;-82
2023/06/27 08:22:36;;;;;;;7.27;2.57;;;23.30;3.80;;;;;;5003235;28;47581;-80
2023/06/27 08:25:02;;;;;;;11.93;2.20;;;23.10;3.70;;;;;;4999459;28;46871;-79
2023/06/27 08:27:27;;;;;;;12.47;3.10;;;23.40;3.80;;;;;;4993149;28;46418;-80
2023/06/27 08:29:53;;;;;;;7.80;2.80;;;23.60;3.80;;;;;;4997678;28;46186;-82
2023/06/27 08:32:19;;;;;;;8.53;2.60;;;23.90;3.50;;;;;;5002873;28;47026;-79
2023/06/27 08:34:44;;;;;;;5.50;2.53;;;23.80;3.10;;;;;;5002260;28;46618;-83
2023/06/27 08:37:10;;;;;;;7.90;2.93;;;23.80;3.10;;;;;;4981766;28;46457;-82
2023/06/27 08:39:36;;;;;;;8.10;2.80;;;23.50;3.20;;;;;;4998357;28;46642;-79
2023/06/27 08:42:02;;;;;;;7.27;2.87;;;22.90;3.20;;;;;;5002101;28;46463;-81
2023/06/27 08:44:28;;;;;;;9.93;2.80;;;23.00;3.80;;;;;;4998826;28;46243;-81
2023/06/27 08:46:58;;;;;;;8.37;3.20;;;23.20;3.80;;;;;;4999902;28;46443;-80
2023/06/27 08:49:27;;;;;;;9.40;2.80;;;23.50;3.70;;;;;;5000622;28;46600;-82
2023/06/27 08:51:56;;;;;;;7.13;2.53;;;23.80;2.60;;;;;;4984586;28;48250;-80
2023/06/27 08:54:27;;;;;;;13.63;3.10;;;23.50;2.70;;;;;;4998561;28;46618;-80
2023/06/27 08:56:53;;;;;;;8.83;2.70;;;23.00;3.60;;;;;;4998846;28;45947;-81
2023/06/27 08:59:24;;;;;;;7.23;2.40;;;23.00;4.30;;;;;;4998945;28;46641;-81
2023/06/27 09:01:51;;;;;;;9.30;2.50;;;23.50;3.30;;;;;;5002916;28;46269;-83
2023/06/27 09:04:17;;;;;;;9.90;3.07;;;23.80;3.00;;;;;;5000785;28;46414;-82
2023/06/27 09:06:44;;;;;;;8.00;2.60;;;24.30;3.00;;;;;;4999004;28;46447;-80
2023/06/27 09:09:12;;;;;;;10.90;3.00;;;24.70;2.20;;;;;;4998465;28;46423;-82
2023/06/27 09:11:37;;;;;;;11.53;3.13;;;24.90;2.20;;;;;;5002530;28;47286;-81
2023/06/27 09:14:05;;;;;;;5.70;3.00;;;25.00;1.70;;;;;;4997831;28;46566;-81
2023/06/27 09:16:30;;;;;;;12.43;3.13;;;24.40;1.90;;;;;;5002862;28;46601;-81
2023/06/27 09:18:56;;;;;;;8.50;2.47;;;23.80;3.00;;;;;;5007034;28;46356;-81
2023/06/27 09:21:22;;;;;;;6.30;3.00;;;23.50;2.40;;;;;;5006832;28;46426;-82
2023/06/27 09:23:49;;;;;;;8.10;2.80;;;23.40;2.40;;;;;;5005512;28;46887;-78
2023/06/27 09:26:15;;;;;;;12.47;2.87;;;23.20;2.80;;;;;;5004655;28;46541;-81
2023/06/27 09:28:47;;;;;;;6.03;2.00;;;23.60;2.70;;;;;;5007361;28;46407;-81
2023/06/27 09:31:13;;;;;;;9.00;3.63;;;24.00;2.70;;;;;;4987316;28;48173;-81
2023/06/27 09:33:41;;;;;;;9.13;2.63;;;24.40;3.70;;;;;;5006564;28;46499;-81
2023/06/27 09:36:07;;;;;;;6.90;1.97;;;24.60;1.80;;;;;;4988362;28;46650;-82
2023/06/27 09:38:33;;;;;;;4.03;1.80;;;24.90;1.30;;;;;;5007339;28;46623;-81
2023/06/27 09:41:03;;;;;;;7.07;2.43;;;25.00;1.00;;;;;;5004156;28;46825;-82
2023/06/27 09:43:32;;;;;;;9.77;2.50;;;25.10;1.00;;;;;;5008906;28;47021;-80
2023/06/27 09:45:59;;;;;;;9.47;2.83;;;25.30;1.00;;;;;;4988695;28;46761;-79
2023/06/27 09:48:24;;;;;;;8.30;3.10;;;25.40;1.00;;;;;;5009471;28;46409;-83
2023/06/27 09:50:57;;;;;;;8.30;2.33;;;25.60;1.00;;;;;;5007769;28;46672;-82
2023/06/27 09:53:23;;;;;;;13.57;2.83;;;26.00;1.00;;;;;;5005024;28;46484;-82
2023/06/27 09:55:48;;;;;;;7.33;2.73;;;26.20;1.00;;;;;;5008820;28;46546;-77
2023/06/27 09:58:15;;;;;;;9.17;2.60;;;26.10;1.00;;;;;;5007820;28;46553;-82
2023/06/27 10:00:40;;;;;;;7.67;2.40;;;26.10;1.00;;;;;;5005533;28;46423;-82
2023/06/27 10:03:08;;;;;;;5.70;2.73;;;25.80;1.00;;;;;;5008372;28;46498;-82
2023/06/27 10:05:34;;;;;;;16.50;2.90;;;25.90;1.00;;;;;;5008950;28;46412;-81
2023/06/27 10:07:59;;;;;;;7.33;2.43;;;25.70;1.00;;;;;;5007906;28;46422;-80
2023/06/27 10:10:26;;;;;;;11.67;2.57;;;25.30;1.00;;;;;;4988314;28;48328;-83
2023/06/27 10:12:52;;;;;;;9.63;2.53;;;25.00;1.00;;;;;;5007250;28;46400;-81
2023/06/27 10:15:17;;;;;;;11.67;2.97;;;24.70;1.00;;;;;;5006195;28;46916;-79
2023/06/27 10:17:45;;;;;;;10.90;2.20;;;24.90;1.00;;;;;;5005661;28;46478;-82
2023/06/27 10:20:11;;;;;;;6.07;2.33;;;24.90;1.00;;;;;;5003659;28;48182;-82
2023/06/27 10:22:42;;;;;;;7.67;2.70;;;24.80;1.00;;;;;;5008585;28;46500;-82
2023/06/27 10:25:09;;;;;;;6.73;2.20;;;24.80;1.00;;;;;;5008253;28;46929;-80
2023/06/27 10:27:38;;;;;;;5.97;2.60;;;24.90;1.00;;;;;;5002659;28;46342;-80
2023/06/27 10:30:26;;;;;;;8.03;2.47;;;25.10;1.00;;;;;;5004343;28;46633;-81
2023/06/27 10:33:06;;;;;;;9.70;2.37;;;25.60;1.00;;;;;;4979044;28;46530;-81
2023/06/27 10:35:31;;;;;;;9.27;2.33;;;25.70;1.00;;;;;;5004031;28;47259;-80
2023/06/27 10:38:13;;;;;;;6.80;2.57;;;25.80;1.00;;;;;;5000269;28;46379;-80
2023/06/27 10:41:06;;;;;;;13.30;2.50;;;25.70;1.00;;;;;;5002637;28;48461;-81
2023/06/27 10:43:47;;;;;;;7.10;2.80;;;25.70;1.00;;;;;;5003808;28;46904;-81
2023/06/27 10:46:26;;;;;;;5.70;2.30;;;25.90;1.00;;;;;;5001435;28;46488;-81
2023/06/27 10:49:00;;;;;;;8.60;2.97;;;26.10;1.00;;;;;;4998568;28;46727;-83
2023/06/27 10:51:43;;;;;;;7.40;2.37;;;26.40;1.00;;;;;;5002463;28;49578;-82
2023/06/27 10:54:08;;;;;;;12.47;3.10;;;26.70;1.00;;;;;;4986313;28;46461;-80
2023/06/27 10:56:37;;;;;;;8.60;2.63;;;26.80;1.00;;;;;;4985590;28;46525;-81
2023/06/27 10:59:04;;;;;;;6.50;2.63;;;27.00;1.00;;;;;;4998388;28;46433;-81
2023/06/27 11:01:34;;;;;;;9.43;2.57;;;27.10;1.00;;;;;;5001194;28;47066;-81
2023/06/27 11:04:14;;;;;;;10.07;2.57;;;26.80;1.00;;;;;;5000670;28;46457;-81
2023/06/27 11:06:41;;;;;;;7.07;2.43;;;26.50;1.00;;;;;;5000674;28;46482;-80
2023/06/27 11:09:17;;;;;;;11.83;2.60;;;26.60;1.00;;;;;;4983142;28;46350;-82
2023/06/27 11:12:06;;;;;;;6.47;2.90;;;27.00;1.00;;;;;;4985191;28;48310;-83
2023/06/27 11:14:37;;;;;;;4.47;2.10;;;27.10;1.00;;;;;;5003096;28;46541;-82
2023/06/27 11:17:03;;;;;;;5.20;2.40;;;27.20;1.00;;;;;;4996653;28;46592;-81
2023/06/27 11:19:31;;;;;;;7.40;2.37;;;27.10;1.00;;;;;;5000752;28;46395;-80
2023/06/27 11:21:57;;;;;;;7.20;2.40;;;27.00;1.00;;;;;;5001158;28;46534;-80
2023/06/27 11:24:24;;;;;;;8.50;2.40;;;26.10;1.00;;;;;;5002215;28;46557;-81
2023/06/27 11:26:51;;;;;;;6.77;2.40;;;25.20;1.00;;;;;;5000125;28;46554;-80
2023/06/27 11:29:16;;;;;;;6.97;2.43;;;25.20;1.00;;;;;;4981061;28;46324;-81
2023/06/27 11:31:42;;;;;;;4.70;2.07;;;25.40;1.00;;;;;;5002153;28;46424;-79
2023/06/27 11:34:07;;;;;;;7.27;2.73;;;25.10;1.00;;;;;;4997682;28;46391;-82
2023/06/27 11:36:36;;;;;;;6.87;2.70;;;24.90;1.00;;;;;;4999589;28;45754;-82
2023/06/27 11:39:03;;;;;;;10.80;3.60;;;24.80;1.00;;;;;;5004420;28;46647;-80
2023/06/27 11:41:28;;;;;;;9.70;2.73;;;25.20;1.00;;;;;;4982621;28;49442;-78
2023/06/27 11:43:55;;;;;;;6.70;2.47;;;25.80;1.00;;;;;;4999934;28;46971;-81
2023/06/27 11:46:21;;;;;;;7.40;2.40;;;26.20;1.00;;;;;;5003576;28;45819;-82
2023/06/27 11:48:47;;;;;;;6.40;2.30;;;26.20;1.00;;;;;;5004598;28;46634;-81
2023/06/27 11:51:14;;;;;;;17.30;3.40;;;25.80;1.00;;;;;;5002782;28;46473;-81
2023/06/27 11:53:48;;;;;;;7.70;3.00;;;25.30;1.00;;;;;;4985803;28;46570;-82
2023/06/27 11:56:13;;;;;;;8.77;2.30;;;25.20;1.00;;;;;;5005270;28;45816;-83
2023/06/27 11:58:39;;;;;;;10.75;3.10;;;25.60;1.00;;;;;;4983178;28;46422;-79
2023/06/27 12:01:13;;;;;;;7.73;2.73;;;25.70;1.00;;;;;;4999120;28;46558;-80
2023/06/27 12:03:39;;;;;;;6.60;2.50;;;25.60;1.00;;;;;;4999748;28;46532;-81
2023/06/27 12:06:04;;;;;;;8.17;2.80;;;25.50;1.00;;;;;;4998856;28;46438;-80
2023/06/27 12:08:32;;;;;;;15.47;3.07;;;25.40;1.00;;;;;;4980665;28;46609;-79
2023/06/27 12:11:01;;;;;;;7.40;2.43;;;25.40;1.00;;;;;;5001854;28;46468;-81
2023/06/27 12:13:41;;;;;;;8.80;2.40;;;25.70;1.00;;;;;;5001311;28;45792;-80
2023/06/27 12:16:20;;;;;;;9.10;2.80;;;26.10;1.00;;;;;;4996706;28;47482;-78
2023/06/27 12:18:46;;;;;;;9.10;2.30;;;26.20;1.00;;;;;;5000233;28;45892;-80
2023/06/27 12:21:11;;;;;;;8.20;2.50;;;26.50;1.00;;;;;;4982755;28;48238;-81
2023/06/27 12:23:37;;;;;;;7.93;2.73;;;26.00;1.00;;;;;;5002022;28;46329;-80
2023/06/27 12:26:03;;;;;;;6.30;2.53;;;25.90;1.00;;;;;;5000242;28;46450;-80
2023/06/27 12:28:32;;;;;;;6.50;2.53;;;25.90;1.00;;;;;;5002582;28;46412;-81
2023/06/27 12:30:57;;;;;;;6.00;2.50;;;25.20;1.00;;;;;;5001446;28;46416;-82
2023/06/27 12:33:24;;;;;;;5.67;2.30;;;25.20;1.00;;;;;;4983913;28;47128;-81
2023/06/27 12:35:50;;;;;;;7.30;2.60;;;25.10;1.00;;;;;;4983062;28;46969;-77
2023/06/27 12:38:16;;;;;;;14.10;2.53;;;24.70;1.00;;;;;;4979502;28;46643;-82
2023/06/27 12:40:41;;;;;;;7.53;2.37;;;24.50;1.00;;;;;;5004654;28;46663;-81
2023/06/27 12:43:07;;;;;;;11.53;3.00;;;24.40;1.00;;;;;;4987729;28;46475;-80
2023/06/27 12:45:33;;;;;;;4.93;2.10;;;24.40;1.00;;;;;;4985430;28;46513;-82
2023/06/27 12:47:58;;;;;;;8.13;2.53;;;24.80;1.00;;;;;;5000213;28;45808;-82